首页
METAR-TAF:

METAR-TAF

机场 :

伯靈頓, 佛蒙特州, 美国

纬度: 44-28-05N, 经度: 073-09-01W, 海拔: 101米

当前天气观测

该预报发布于20分钟前的04:54 UTC
风速5节,风向西北
温度 2°C
湿度 75%
气压 1015 hPa
能見度: 16.1公里
阴天层高于7000英尺

METAR: KBTV 260454Z 31005KT 10SM OVC070 02/M02 A2998 RMK AO2 SLP155 LAST T00171022 400390011

时间: 00:14 (05:14 UTC)

预报

该预报发布于5小时和39分钟前的23:35 UTC
预报有效从26日的 00点(UTC)到 26日的 24点(UTC)
风速4节,风向北转西北
能見度: 10公里
多云层高于4000英尺
从 26日的 1100点(UTC)
风速4节,风向
能見度: 10公里
多云层高于2500英尺
附近有阵雨
从 26日的 1500点(UTC)
风速节,风向
能見度: 10公里
多云层高于1800英尺
附近有阵雨

TAF: KBTV 252335Z 2600/2624 33004KT P6SM BKN040 FM261100 35004KT P6SM VCSH BKN025 FM261500 00000KT P6SM VCSH BKN018

超过4000个机场的气象观测和天气预报(METAR&TAF报告)。

可查询的气象台以黄色和红色小点在地图上表示。

将鼠标移到小点上方,可查看气象台名称。

然后点击查看天气观测和预报。

如需切换地图:点击带黑十字的绿色按钮放大地图;点击带横线的绿色按钮缩小地图;或者点击绿色箭头查看邻近地区的地图。


METAR-TAF: